Quantico MCAF /Turner field
KNYG : rendu visible

Aérodrome :











RETROUVEZ-NOUS SUR...

 
LOGIN :

S'inscrire | Disclaimer

   EN    FR    IT 

 









Légende :    VFR   VFR Marginal   IFR   IFR Intensif   IFR Très Intensif
Visi : 
Plafond : 
>= 8 km
>= 3000ft
5 à 8 km
1000 à 3000 ft
1500m à 5 km
500 à 1000 ft
800 à 1500m
200 à 500 ft
< 800m
< 200 ft
Symboles :   Orages  Brouillard  Fortes neiges  Fortes précipitations  Vent > 20 kt






- Altitude de l'aérodrome : 10 ft


KNYG - Quantico MCAF /Turner field

DERNIER METAR :
  • 071156Z 11004KT 10SM FEW012 BKN110 24/21 A3009 RMK AO2 SLP190 70013 T02390211 10244 20228 53007

METARs EXPIRÉS :
  • 071056Z AUTO 10008KT 7SM CLR 24/21 A3008 RMK AO2 SLP187 T02390211
  • 071010Z AUTO 10007KT 8SM SCT025 24/21 A3008 RMK AO2 T02390211

TAF COR TAF KNYG
Valide du 07 à 09h jusqu'au 08 à 09h UTC


0709/0809 10005KT 9999 OVC018 QNH3003INS
BECMG 0710/0712 VRB05KT 9999 SCT015 BKN030 OVC050 QNH3005INS
TEMPO 0712/0717 9999 VCSH BKN010CB OVC025
FM071800 27006KT 6000 -TSRA BR SCT015CB BKN020 QNH3001INS
TEMPO 0720/0802 11010G20KT 4800 TSRA BR BKN005CB OVC020
FM080300 11006KT 9999 VCSH BKN020CB BKN030 QNH3003INS
BECMG 0807/0809 06005KT 9999 BKN010 OVC025 QNH3007INS T28/0719Z T24/0809Z COR 1225
FIR KZDC / Amérique du Nord



MET'MAP, la Météo Aéronautique d'un coup d'oeil ! - Copyright ORBIFLY Décembre 2007 - Disclaimer

ORBIFLY MET'MAP TEAM :

Programmation & Développement : Alexandra Zaïnal
Sur une idée originale de : Baudouin d'Aumeries
Assistance à la programmation : Marc-Olivier Méhu
Soutien technique & logistique : Manuel Goepfert

Contact : metmap@orbifly.com




SOURCES & CREDITS :

   NOAA       Earth
Advisory